Beirne, AR (71721)

11:45 AM CST on January 31, 2015 (GMT -0600)
Gurdon, AR | Change Station
CLOSE
Current Station
Personal Weather Station
Location: Gurdon, AR
Elevation: 210 ft
Nearby Weather Stations

Elev 210 ft 33.92 °N, 93.15 °W | Updated 7 minutes ago

Overcast
Overcast
46.6 °F
Feels Like 47 °F
N
2.2
Wind Variable Wind from South

Today
High -- | Low -- °F
--% Chance of Precip.
Yesterday
High -- | Low -- °F
Precip. -- in
7:10 AM 5:42 PM
Waxing Gibbous, 90% visible
Pressure 30.39 in
Visibility 10.0 miles
Clouds Clear
Windchill 47 °F
Dew Point 33 °F
Humidity 58%
Rainfall 0.00 in
Snow Depth Not available.
UV 4 out of 12
Pollen 5.20 out of 12
Air Quality Not available.
Flu Activity Not available.
METAR KADF 311656Z AUTO 00000KT 10SM CLR 07/M02 A3034 RMK AO2 T00661016 SLP290

More Conditions Fewer Conditions

Pressure 30.39 in
Visibility 10.0 miles
Clouds Clear
Windchill 47 °F
Dew Point 33 °F
Humidity 58%
Rainfall 0.00 in
Snow Depth Not available.
UV 4 out of 12
Pollen 5.20 out of 12
Air Quality Not available.
Flu Activity Not available.
METAR KADF 311656Z AUTO 00000KT 10SM CLR 07/M02 A3034 RMK AO2 T00661016 SLP290

More Conditions Fewer Conditions

10-Day Weather Forecast

Almanac

Astronomy

Jan. 31, 2015 Rise Set
Actual Time
Civil Twilight
Nautical Twilight
Astronomical Twilight
Moon
Length of Visible Light
Length of Day
Tomorrow will be .
, % of the Moon is Illuminated

Today's Extremes

State Highs State Lows

Community

WunderPhotos

Upload Photos

1,792,136 photos uploaded!

WunderBlogs® & News

Nearby

Air Quality

  Air Quality AQ Index Pollutant
Not available.

Snow Depth

Station Depth Elevation

Earthquake Activity

City Distance Mag. Time & Date
Minimum magnitude displayed is 2.5.

Coastal Water Temperatures

Place Temperature

Nearby Weather Stations